Terminal Aerodrome Forecast
Issued by NWS

Home | Current Version | Previous Version | Text Only | Print | Product List | Glossary On
Versions: 1 2 3 4 5 6 7 8 9 10 11
000
FTUS44 KLUB 270500
TAFCDS
TAF
KCDS 270520Z 2706/2806 35014KT P6SM SCT040 BKN100
     FM270800 36013KT P6SM -SN SCT025 OVC050
     FM271100 35012KT P6SM SCT050 OVC080
     FM271700 36009KT P6SM SCT100=

USA.gov is the U.S. government's official web portal to all federal, state and local government web resources and services.